Time;durP1;ratioP1;P1;durP2;ratioP2;P2;SDS_P1;SDS_P2;PMS_P1;PMS_P2;Temp;Humidity;BMP_temperature;BMP_pressure;BME280_temperature;BME280_humidity;BME280_pressure;Samples;Min_cycle;Max_cycle;Signal;HPM_P1;HPM_P2
2022/04/22 00:00:23;;;;;;;5.00;2.30;;;9.30;99.90;;;;;;5083735;28;20208;-60
2022/04/22 00:02:49;;;;;;;3.47;2.63;;;9.20;99.90;;;;;;5084797;28;20197;-60
2022/04/22 00:05:15;;;;;;;7.10;3.23;;;9.20;99.90;;;;;;5084191;28;20196;-59
2022/04/22 00:07:40;;;;;;;3.90;2.83;;;9.10;99.90;;;;;;5085940;28;20638;-60
2022/04/22 00:10:08;;;;;;;2.90;2.60;;;9.10;99.90;;;;;;5083933;28;21051;-59
2022/04/22 00:12:34;;;;;;;3.57;2.77;;;9.00;99.90;;;;;;5085699;28;20205;-59
2022/04/22 00:14:59;;;;;;;3.80;2.60;;;8.90;99.90;;;;;;5084145;28;20220;-60
2022/04/22 00:17:24;;;;;;;3.90;2.10;;;8.90;99.90;;;;;;5085700;28;20194;-60
2022/04/22 00:19:50;;;;;;;6.00;3.13;;;8.80;99.90;;;;;;5084198;28;20201;-60
2022/04/22 00:22:16;;;;;;;3.40;2.63;;;8.80;99.90;;;;;;5084869;28;20247;-59
2022/04/22 00:24:41;;;;;;;3.60;1.93;;;8.80;99.90;;;;;;5083500;28;20210;-59
2022/04/22 00:27:07;;;;;;;6.93;3.13;;;8.80;99.90;;;;;;5084752;28;20213;-62
2022/04/22 00:29:32;;;;;;;5.37;2.80;;;8.70;99.90;;;;;;5082294;28;20842;-62
2022/04/22 00:31:57;;;;;;;5.77;2.97;;;8.70;99.90;;;;;;5085687;28;20201;-62
2022/04/22 00:34:23;;;;;;;5.10;2.90;;;8.60;99.90;;;;;;5083324;28;20353;-60
2022/04/22 00:36:49;;;;;;;6.13;2.83;;;8.60;99.90;;;;;;5078862;28;20189;-61
2022/04/22 00:39:14;;;;;;;8.03;5.80;;;8.50;99.90;;;;;;5083372;28;20194;-62
2022/04/22 00:41:40;;;;;;;3.47;2.73;;;8.40;99.90;;;;;;5085697;28;20247;-62
2022/04/22 00:44:05;;;;;;;3.30;2.63;;;8.40;99.90;;;;;;5082864;28;20209;-62
2022/04/22 00:46:31;;;;;;;4.63;2.93;;;8.40;99.90;;;;;;5085014;28;20185;-61
2022/04/22 00:48:56;;;;;;;4.67;3.17;;;8.40;99.90;;;;;;5082798;28;20280;-62
2022/04/22 00:51:22;;;;;;;3.40;2.60;;;8.30;99.90;;;;;;5084840;28;20198;-62
2022/04/22 00:53:50;;;;;;;6.40;3.47;;;8.30;99.90;;;;;;5082773;28;20560;-62
2022/04/22 00:56:16;;;;;;;6.70;3.57;;;8.20;99.90;;;;;;5084878;28;20220;-63
2022/04/22 00:58:44;;;;;;;6.63;3.37;;;8.10;99.90;;;;;;5082284;28;20614;-64
2022/04/22 01:01:11;;;;;;;5.63;2.50;;;8.10;99.90;;;;;;5085363;28;20197;-64
2022/04/22 01:03:37;;;;;;;5.90;3.07;;;7.90;99.90;;;;;;5083421;28;20252;-64
2022/04/22 01:11:36;;;;;;;5.53;3.63;;;7.80;99.90;;;;;;5085497;28;20200;-63
2022/04/22 01:14:04;;;;;;;6.23;3.90;;;7.70;99.90;;;;;;5082945;28;20683;-63
2022/04/22 01:16:30;;;;;;;6.37;3.90;;;7.60;99.90;;;;;;5084336;28;20185;-63
2022/04/22 01:18:56;;;;;;;10.53;3.97;;;7.50;99.90;;;;;;5083135;28;20215;-63
2022/04/22 01:21:21;;;;;;;10.17;4.90;;;7.50;99.90;;;;;;5084857;28;20216;-64
2022/04/22 01:23:47;;;;;;;10.73;4.33;;;7.40;99.90;;;;;;5083616;28;20210;-62
2022/04/22 01:26:14;;;;;;;5.90;4.03;;;7.40;99.90;;;;;;5084916;28;20197;-63
2022/04/22 01:28:39;;;;;;;5.53;3.93;;;7.30;99.90;;;;;;5082387;28;20289;-62
2022/04/22 01:31:05;;;;;;;8.20;4.80;;;7.30;99.90;;;;;;5084909;28;20197;-63
2022/04/22 01:33:31;;;;;;;6.90;4.13;;;7.30;99.90;;;;;;5082438;28;20562;-63
2022/04/22 01:35:56;;;;;;;6.37;4.00;;;7.20;99.90;;;;;;5084792;28;20182;-63
2022/04/22 01:38:22;;;;;;;5.90;4.13;;;7.20;99.90;;;;;;5080445;28;20199;-63
2022/04/22 01:40:47;;;;;;;9.73;4.37;;;7.10;99.90;;;;;;5084968;28;20178;-63
2022/04/22 01:43:13;;;;;;;12.00;5.00;;;7.00;99.90;;;;;;5084616;28;20188;-63
2022/04/22 01:45:38;;;;;;;9.57;4.53;;;7.00;99.90;;;;;;5082666;28;20193;-64
2022/04/22 01:48:04;;;;;;;7.53;5.23;;;7.00;99.90;;;;;;5084438;28;20236;-63
2022/04/22 01:50:30;;;;;;;8.13;4.43;;;7.00;99.90;;;;;;5082884;28;20198;-64
2022/04/22 01:52:55;;;;;;;7.30;4.57;;;6.90;99.90;;;;;;5084512;28;20205;-64
2022/04/22 01:55:21;;;;;;;10.93;5.97;;;6.90;99.90;;;;;;5082659;28;20220;-64
2022/04/22 01:57:46;;;;;;;9.30;5.63;;;6.90;99.90;;;;;;5084540;28;20186;-64
2022/04/22 02:00:12;;;;;;;10.87;4.30;;;6.90;99.90;;;;;;5082504;28;20280;-63
2022/04/22 02:02:38;;;;;;;6.10;4.57;;;6.90;99.90;;;;;;5079888;28;20200;-64
2022/04/22 02:05:05;;;;;;;6.70;4.47;;;6.90;99.90;;;;;;5082391;28;20561;-64
2022/04/22 02:07:31;;;;;;;7.27;4.67;;;6.80;99.90;;;;;;5084228;28;20190;-64
2022/04/22 02:09:57;;;;;;;8.30;4.87;;;6.80;99.90;;;;;;5082365;28;20201;-64
2022/04/22 02:12:22;;;;;;;11.43;6.20;;;6.80;99.90;;;;;;5084318;28;20675;-64
2022/04/22 02:14:48;;;;;;;9.20;4.73;;;6.90;99.90;;;;;;5082536;28;20201;-64
2022/04/22 02:17:13;;;;;;;8.43;5.53;;;6.80;99.90;;;;;;5084248;28;20196;-64
2022/04/22 02:19:40;;;;;;;8.07;5.43;;;6.90;99.90;;;;;;5082479;28;20189;-65
2022/04/22 02:22:06;;;;;;;6.80;5.13;;;6.90;99.90;;;;;;5084314;28;20318;-65
2022/04/22 02:24:31;;;;;;;7.97;4.53;;;7.00;99.90;;;;;;5076703;28;20246;-64
2022/04/22 02:29:41;;;;;;;10.17;6.10;;;6.80;99.90;;;;;;5086804;28;20281;-64
2022/04/22 02:32:07;;;;;;;12.70;6.17;;;6.80;99.90;;;;;;5086962;28;20205;-63
2022/04/22 02:34:32;;;;;;;7.60;4.93;;;6.70;99.90;;;;;;5088355;28;20182;-63
2022/04/22 02:36:58;;;;;;;10.97;5.77;;;6.80;99.90;;;;;;5086455;28;20789;-63
2022/04/22 02:39:23;;;;;;;7.73;5.17;;;6.80;99.90;;;;;;5087497;28;20170;-64
2022/04/22 02:47:17;;;;;;;8.03;5.60;;;6.90;99.90;;;;;;5082058;28;20235;-64
2022/04/22 02:49:45;;;;;;;11.20;5.50;;;6.90;99.90;;;;;;5087783;28;20185;-63
2022/04/22 02:52:12;;;;;;;8.87;5.13;;;6.80;99.90;;;;;;5085192;28;20217;-63
2022/04/22 02:54:37;;;;;;;6.73;4.97;;;6.80;99.90;;;;;;5087584;28;20941;-63
2022/04/22 02:57:04;;;;;;;6.73;5.13;;;6.80;99.90;;;;;;5085684;28;20211;-64
2022/04/22 02:59:30;;;;;;;7.33;4.70;;;6.80;99.90;;;;;;5087453;28;20188;-59
2022/04/22 03:01:55;;;;;;;7.73;5.73;;;6.90;99.90;;;;;;5079217;28;20197;-65
2022/04/22 03:04:21;;;;;;;11.93;6.30;;;6.80;99.90;;;;;;5087544;28;20181;-64
2022/04/22 03:06:47;;;;;;;9.63;5.57;;;6.80;99.90;;;;;;5085264;28;20219;-64
2022/04/22 03:09:12;;;;;;;8.40;5.37;;;6.70;99.90;;;;;;5087375;28;20582;-64
2022/04/22 03:11:38;;;;;;;8.27;5.40;;;6.70;99.90;;;;;;5086499;28;20582;-63
2022/04/22 03:14:05;;;;;;;8.67;5.43;;;6.60;99.90;;;;;;5085535;28;20284;-64
2022/04/22 03:16:31;;;;;;;13.40;6.57;;;6.70;99.90;;;;;;5085222;28;20189;-64
2022/04/22 03:18:57;;;;;;;8.23;5.67;;;6.70;99.90;;;;;;5085919;28;20251;-65
2022/04/22 03:21:23;;;;;;;9.13;5.90;;;6.70;99.90;;;;;;5086807;28;20197;-65
2022/04/22 03:23:49;;;;;;;7.80;5.37;;;6.70;99.90;;;;;;5085330;28;20197;-65
2022/04/22 03:26:14;;;;;;;11.23;6.87;;;6.80;99.90;;;;;;5086796;28;20217;-66
2022/04/22 03:28:40;;;;;;;12.00;6.10;;;6.70;99.90;;;;;;5085047;28;20229;-65
2022/04/22 03:31:05;;;;;;;9.47;5.73;;;6.60;99.90;;;;;;5074034;28;20205;-64
2022/04/22 03:33:31;;;;;;;9.53;6.47;;;6.60;99.90;;;;;;5085053;28;20204;-64
2022/04/22 03:35:56;;;;;;;10.30;6.10;;;6.50;99.90;;;;;;5087010;28;20193;-65
2022/04/22 03:38:22;;;;;;;11.07;6.40;;;6.50;99.90;;;;;;5084843;28;20198;-64
2022/04/22 03:40:49;;;;;;;10.93;6.07;;;6.40;99.90;;;;;;5086574;28;20198;-64
2022/04/22 03:43:15;;;;;;;9.30;6.27;;;6.30;99.90;;;;;;5084825;28;20229;-64
2022/04/22 03:45:41;;;;;;;10.80;6.13;;;6.30;99.90;;;;;;5086532;28;20208;-64
2022/04/22 03:48:07;;;;;;;11.27;6.13;;;6.30;99.90;;;;;;5085178;28;20214;-63
2022/04/22 03:50:33;;;;;;;11.10;8.87;;;6.20;99.90;;;;;;5086523;28;20272;-64
2022/04/22 03:52:59;;;;;;;14.10;6.57;;;6.30;99.90;;;;;;5084618;28;20320;-64
2022/04/22 03:55:24;;;;;;;11.20;7.80;;;6.40;99.90;;;;;;5086184;28;20213;-64
2022/04/22 04:00:34;;;;;;;12.27;7.03;;;6.40;99.90;;;;;;5079092;28;20228;-64
2022/04/22 04:03:01;;;;;;;8.93;6.63;;;6.40;99.90;;;;;;5081078;28;20254;-63
2022/04/22 04:05:27;;;;;;;12.30;6.50;;;6.40;99.90;;;;;;5085170;28;20209;-63
2022/04/22 04:07:52;;;;;;;10.53;6.90;;;6.40;99.90;;;;;;5085868;28;20189;-64
2022/04/22 04:15:57;;;;;;;15.00;7.73;;;6.30;99.90;;;;;;5084708;28;20211;-63
2022/04/22 04:18:24;;;;;;;11.03;6.47;;;6.20;99.90;;;;;;5085810;28;20192;-65
2022/04/22 04:23:33;;;;;;;10.90;7.17;;;6.30;99.90;;;;;;5076079;28;20184;-64
2022/04/22 04:25:59;;;;;;;15.93;7.43;;;6.30;99.90;;;;;;5084126;28;20295;-65
2022/04/22 04:28:27;;;;;;;8.23;7.13;;;6.30;99.90;;;;;;5079058;28;20286;-66
2022/04/22 04:30:54;;;;;;;8.47;6.73;;;6.40;99.90;;;;;;5084049;28;20615;-64
2022/04/22 04:33:20;;;;;;;9.87;6.53;;;6.40;99.90;;;;;;5085959;28;20217;-65
2022/04/22 04:35:47;;;;;;;14.80;10.00;;;6.40;99.90;;;;;;5083840;28;20339;-64
2022/04/22 04:38:13;;;;;;;10.80;8.17;;;6.40;99.90;;;;;;5085691;28;20939;-64
2022/04/22 04:40:38;;;;;;;15.13;7.50;;;6.40;99.90;;;;;;5083733;28;20228;-64
2022/04/22 04:43:05;;;;;;;10.00;6.40;;;6.30;99.90;;;;;;5077353;28;20220;-64
2022/04/22 04:45:32;;;;;;;11.53;7.93;;;6.40;99.90;;;;;;5083521;28;20201;-64
2022/04/22 04:47:57;;;;;;;11.17;6.93;;;6.40;99.90;;;;;;5085118;28;20204;-64
2022/04/22 04:50:23;;;;;;;11.33;7.13;;;6.40;99.90;;;;;;5077662;28;20189;-64
2022/04/22 04:52:48;;;;;;;12.10;7.43;;;6.40;99.90;;;;;;5085116;28;20236;-63
2022/04/22 04:55:14;;;;;;;12.90;7.50;;;6.40;99.90;;;;;;5079377;28;20659;-63
2022/04/22 04:57:41;;;;;;;12.30;7.37;;;6.50;99.90;;;;;;5085002;28;20197;-63
2022/04/22 05:00:08;;;;;;;15.43;7.40;;;6.50;99.90;;;;;;5083010;28;20213;-64
2022/04/22 05:02:34;;;;;;;10.93;7.27;;;6.50;99.90;;;;;;5084763;28;20197;-64
2022/04/22 05:04:59;;;;;;;12.30;7.60;;;6.60;99.90;;;;;;5083083;28;20203;-63
2022/04/22 05:07:24;;;;;;;13.23;7.30;;;6.70;99.90;;;;;;5084958;28;20193;-62
2022/04/22 05:09:50;;;;;;;13.03;7.47;;;6.70;99.90;;;;;;5082976;28;20237;-64
2022/04/22 05:12:15;;;;;;;11.53;7.20;;;6.70;99.90;;;;;;5084594;28;20671;-63
2022/04/22 05:14:41;;;;;;;12.40;7.30;;;6.70;99.90;;;;;;5083118;28;20571;-63
2022/04/22 05:17:06;;;;;;;13.47;6.77;;;6.70;99.90;;;;;;5084022;28;20189;-63
2022/04/22 05:19:32;;;;;;;14.03;8.07;;;6.70;99.90;;;;;;5082769;28;20220;-62
2022/04/22 05:21:57;;;;;;;14.60;8.70;;;6.70;99.90;;;;;;5085102;28;20655;-63
2022/04/22 05:24:23;;;;;;;13.53;7.43;;;6.80;99.90;;;;;;5082781;28;20246;-64
2022/04/22 05:26:48;;;;;;;15.57;7.20;;;6.80;99.90;;;;;;5084225;28;20285;-63
2022/04/22 05:34:42;;;;;;;12.23;6.90;;;7.00;99.90;;;;;;5082729;28;20244;-63
2022/04/22 05:37:08;;;;;;;18.97;7.70;;;7.10;99.90;;;;;;5084116;28;20229;-64
2022/04/22 05:39:33;;;;;;;15.50;8.23;;;7.30;99.90;;;;;;5082691;28;20556;-64
2022/04/22 05:42:01;;;;;;;8.93;6.97;;;7.40;99.90;;;;;;5084992;28;20250;-64
2022/04/22 05:44:30;;;;;;;14.53;7.17;;;7.50;99.90;;;;;;5082633;28;20263;-65
2022/04/22 05:46:55;;;;;;;17.77;7.60;;;7.70;99.90;;;;;;5084806;28;20517;-65
2022/04/22 05:49:20;;;;;;;13.47;7.10;;;7.80;99.90;;;;;;5071366;28;20680;-65
2022/04/22 05:51:46;;;;;;;14.13;8.03;;;7.90;99.90;;;;;;5084562;28;20228;-65
2022/04/22 05:54:12;;;;;;;11.40;7.07;;;7.90;99.90;;;;;;5083125;28;20323;-65
2022/04/22 05:56:37;;;;;;;11.07;7.33;;;8.10;99.90;;;;;;5084174;28;20201;-66
2022/04/22 05:59:03;;;;;;;8.87;6.83;;;8.10;99.90;;;;;;5082343;28;20197;-66
2022/04/22 06:01:29;;;;;;;12.57;7.23;;;8.10;99.90;;;;;;5082866;28;20690;-65
2022/04/22 06:03:58;;;;;;;14.70;6.90;;;8.10;99.90;;;;;;5088908;28;20877;-64
2022/04/22 06:06:24;;;;;;;9.70;6.40;;;8.20;99.90;;;;;;5086370;28;20186;-65
2022/04/22 06:11:33;;;;;;;20.87;8.23;;;8.10;99.90;;;;;;5086507;28;20668;-65
2022/04/22 06:13:59;;;;;;;13.80;7.07;;;8.40;99.90;;;;;;5088973;28;20182;-65
2022/04/22 06:16:24;;;;;;;11.83;6.97;;;8.50;99.90;;;;;;5086138;28;20255;-65
2022/04/22 06:18:50;;;;;;;8.17;6.67;;;8.60;99.90;;;;;;5088295;28;20228;-63
2022/04/22 06:21:15;;;;;;;11.87;7.73;;;8.60;99.90;;;;;;5082488;28;20393;-65
2022/04/22 06:23:41;;;;;;;12.50;6.60;;;8.60;99.90;;;;;;5088230;28;20193;-64
2022/04/22 06:26:06;;;;;;;15.37;7.23;;;8.60;99.90;;;;;;5086043;28;20218;-64
2022/04/22 06:28:33;;;;;;;14.50;7.87;;;8.60;99.90;;;;;;5087776;28;20703;-64
2022/04/22 06:30:59;;;;;;;15.73;7.10;;;8.70;99.90;;;;;;5087769;28;20318;-65
2022/04/22 06:33:25;;;;;;;13.60;7.40;;;8.80;99.90;;;;;;5085972;28;20659;-65
2022/04/22 06:35:50;;;;;;;14.40;7.40;;;8.80;99.90;;;;;;5087794;28;20185;-65
2022/04/22 06:38:18;;;;;;;8.53;7.17;;;9.20;99.90;;;;;;5085734;28;20210;-65
2022/04/22 06:46:13;;;;;;;9.03;6.77;;;9.60;99.90;;;;;;5072767;28;20270;-64
2022/04/22 06:48:39;;;;;;;7.13;6.30;;;9.60;99.90;;;;;;5087951;28;20262;-63
2022/04/22 06:51:07;;;;;;;9.90;6.80;;;9.70;99.90;;;;;;5087452;28;20230;-64
2022/04/22 06:53:34;;;;;;;15.10;7.00;;;9.80;99.90;;;;;;5073627;28;20276;-63
2022/04/22 06:56:01;;;;;;;9.80;7.10;;;9.80;99.90;;;;;;5087705;28;20276;-64
2022/04/22 06:58:31;;;;;;;8.67;6.57;;;9.70;99.90;;;;;;5085855;28;20238;-64
2022/04/22 07:00:56;;;;;;;11.57;7.17;;;9.80;99.90;;;;;;5087504;28;20341;-64
2022/04/22 07:03:22;;;;;;;14.00;6.93;;;9.80;99.90;;;;;;5085806;28;20248;-64
2022/04/22 07:05:49;;;;;;;7.00;5.60;;;9.80;99.90;;;;;;5087228;28;20989;-63
2022/04/22 07:08:17;;;;;;;9.87;5.63;;;9.80;99.90;;;;;;5085526;28;20229;-64
2022/04/22 07:10:45;;;;;;;8.47;5.23;;;9.80;99.90;;;;;;5087360;28;20189;-62
2022/04/22 07:13:12;;;;;;;10.03;6.53;;;9.80;99.90;;;;;;5084575;28;20312;-65
2022/04/22 07:15:38;;;;;;;8.70;5.80;;;10.00;99.90;;;;;;5087056;28;20197;-64
2022/04/22 07:18:05;;;;;;;11.53;6.50;;;10.10;99.90;;;;;;5084986;28;20206;-64
2022/04/22 07:20:30;;;;;;;9.27;6.17;;;10.20;99.90;;;;;;5086529;28;20645;-65
2022/04/22 07:22:59;;;;;;;9.40;5.60;;;10.40;99.90;;;;;;5081021;28;20366;-63
2022/04/22 07:25:25;;;;;;;7.23;5.67;;;10.60;99.90;;;;;;5086952;28;20225;-63
2022/04/22 07:27:51;;;;;;;9.83;6.40;;;10.60;99.90;;;;;;5079475;28;20244;-63
2022/04/22 07:30:18;;;;;;;9.50;5.80;;;10.50;99.90;;;;;;5086560;28;20205;-64
2022/04/22 07:32:46;;;;;;;6.70;5.60;;;10.50;99.90;;;;;;5084720;28;20678;-65
2022/04/22 07:35:13;;;;;;;8.90;5.20;;;10.50;99.90;;;;;;5086427;28;20234;-64
2022/04/22 07:37:39;;;;;;;10.37;5.97;;;10.60;99.90;;;;;;5084797;28;20211;-64
2022/04/22 07:40:06;;;;;;;12.13;6.27;;;10.80;99.90;;;;;;5086791;28;20186;-64
2022/04/22 07:42:33;;;;;;;10.07;5.87;;;10.90;99.90;;;;;;5082982;28;20212;-64
2022/04/22 07:47:47;;;;;;;9.23;6.20;;;10.90;99.90;;;;;;5083335;28;20310;-64
2022/04/22 07:50:14;;;;;;;7.50;6.30;;;10.90;99.90;;;;;;5086816;28;20289;-64
2022/04/22 07:52:39;;;;;;;8.97;6.77;;;10.90;99.90;;;;;;5083754;28;20699;-64
2022/04/22 07:55:06;;;;;;;9.50;8.07;;;11.10;99.90;;;;;;5086675;28;20194;-64
2022/04/22 07:57:31;;;;;;;8.30;6.17;;;11.30;99.90;;;;;;5084419;28;20397;-64
2022/04/22 07:59:57;;;;;;;9.20;6.57;;;11.40;99.90;;;;;;5086492;28;20552;-64
2022/04/22 08:02:23;;;;;;;11.47;7.30;;;11.30;99.90;;;;;;5081590;28;20200;-63
2022/04/22 08:04:50;;;;;;;10.53;7.03;;;11.40;99.90;;;;;;5068006;28;20427;-65
2022/04/22 08:07:16;;;;;;;11.47;7.83;;;11.30;99.90;;;;;;5083931;28;20206;-64
2022/04/22 08:09:44;;;;;;;11.67;8.20;;;11.30;99.90;;;;;;5086267;28;20841;-64
2022/04/22 08:12:12;;;;;;;17.67;9.00;;;10.90;99.90;;;;;;5083679;28;20468;-64
2022/04/22 08:14:40;;;;;;;12.03;8.67;;;10.80;99.90;;;;;;5085880;28;20205;-64
2022/04/22 08:17:07;;;;;;;9.40;8.33;;;10.80;99.90;;;;;;5073858;28;20281;-64
2022/04/22 08:19:33;;;;;;;13.20;8.30;;;10.80;99.90;;;;;;5085694;28;20644;-64
2022/04/22 08:21:58;;;;;;;11.57;8.97;;;10.90;99.90;;;;;;5083716;28;20195;-64
2022/04/22 08:24:24;;;;;;;10.47;8.37;;;11.20;99.90;;;;;;5085541;28;20597;-65
2022/04/22 08:26:50;;;;;;;13.57;9.33;;;11.40;99.90;;;;;;5085315;28;20230;-63
2022/04/22 08:29:17;;;;;;;21.83;9.23;;;11.60;99.90;;;;;;5084331;28;20599;-64
2022/04/22 08:31:44;;;;;;;14.83;9.97;;;11.70;99.90;;;;;;5085249;28;20638;-64
2022/04/22 08:34:09;;;;;;;12.87;9.33;;;11.80;99.90;;;;;;5083644;28;20617;-64
2022/04/22 08:36:38;;;;;;;19.50;8.90;;;11.90;99.90;;;;;;5085303;28;20192;-64
2022/04/22 08:39:05;;;;;;;12.43;9.00;;;11.90;99.90;;;;;;5083526;28;20297;-64
2022/04/22 08:41:34;;;;;;;12.97;9.57;;;11.80;99.90;;;;;;5085100;28;20549;-64
2022/04/22 08:44:00;;;;;;;11.90;10.40;;;11.80;99.90;;;;;;5083394;28;20200;-63
2022/04/22 08:51:56;;;;;;;12.67;9.50;;;11.80;99.90;;;;;;5080148;28;20623;-64
2022/04/22 08:54:23;;;;;;;13.73;9.93;;;12.00;99.90;;;;;;5085451;28;20648;-64
2022/04/22 08:56:52;;;;;;;13.77;10.10;;;12.30;99.90;;;;;;5085001;28;20194;-64
2022/04/22 08:59:18;;;;;;;14.87;9.30;;;12.40;99.90;;;;;;5085842;28;20302;-64
2022/04/22 09:01:44;;;;;;;10.97;8.40;;;12.60;99.90;;;;;;5085327;28;20289;-64
2022/04/22 09:04:09;;;;;;;12.93;9.77;;;12.70;99.90;;;;;;5083182;28;20680;-64
2022/04/22 09:06:36;;;;;;;9.90;8.90;;;12.90;99.90;;;;;;5085108;28;20206;-63
2022/04/22 09:09:04;;;;;;;11.43;9.20;;;13.00;99.90;;;;;;5083425;28;20253;-64
2022/04/22 09:11:30;;;;;;;10.63;8.67;;;13.10;99.90;;;;;;5084476;28;20856;-63
2022/04/22 09:13:59;;;;;;;11.93;8.90;;;13.20;99.90;;;;;;5083147;28;20217;-64
2022/04/22 09:16:26;;;;;;;10.00;8.03;;;13.30;99.90;;;;;;5084335;28;20220;-65
2022/04/22 09:18:59;;;;;;;10.53;8.27;;;13.40;99.90;;;;;;5083203;28;20200;-65
2022/04/22 09:21:25;;;;;;;12.73;8.17;;;13.60;99.90;;;;;;5083054;28;20674;-65
2022/04/22 09:23:50;;;;;;;11.90;9.07;;;13.40;99.90;;;;;;5080081;28;20678;-64
2022/04/22 09:26:22;;;;;;;10.30;8.73;;;13.30;99.90;;;;;;5084680;28;20320;-65
2022/04/22 09:29:03;;;;;;;10.83;8.70;;;13.00;99.90;;;;;;5082255;28;20243;-65
2022/04/22 09:31:29;;;;;;;11.13;8.63;;;12.80;99.90;;;;;;5084277;28;20679;-65
2022/04/22 09:33:55;;;;;;;9.87;8.80;;;12.80;99.90;;;;;;5082810;28;20253;-66
2022/04/22 09:44:58;;;;;;;12.60;9.67;;;13.00;99.90;;;;;;5085000;28;20269;-64
2022/04/22 09:47:30;;;;;;;15.37;10.13;;;13.10;99.90;;;;;;5082426;28;20221;-66
2022/04/22 09:49:56;;;;;;;15.87;10.00;;;13.10;99.90;;;;;;5084617;28;20540;-64
2022/04/22 09:52:34;;;;;;;13.47;10.23;;;13.20;99.90;;;;;;5079050;28;20226;-67
2022/04/22 09:55:01;;;;;;;12.77;9.97;;;13.30;99.90;;;;;;5080143;28;20204;-65
2022/04/22 09:57:28;;;;;;;13.13;10.97;;;13.30;99.90;;;;;;5074785;28;20196;-65
2022/04/22 09:59:54;;;;;;;14.27;11.23;;;13.20;99.90;;;;;;5083759;28;20189;-65
2022/04/22 10:02:23;;;;;;;13.53;10.70;;;13.30;99.90;;;;;;5081338;28;20242;-64
2022/04/22 10:04:50;;;;;;;13.03;10.67;;;13.20;99.90;;;;;;5084183;28;20267;-64
2022/04/22 10:07:18;;;;;;;13.53;10.67;;;13.10;99.90;;;;;;5082112;28;20737;-64
2022/04/22 10:09:45;;;;;;;15.87;11.70;;;13.20;99.90;;;;;;5083793;28;20676;-65
2022/04/22 10:12:15;;;;;;;17.33;13.37;;;13.30;99.90;;;;;;5073271;28;20212;-64
2022/04/22 10:14:42;;;;;;;19.20;13.27;;;13.40;99.90;;;;;;5063946;28;20669;-64
2022/04/22 10:17:11;;;;;;;16.83;12.73;;;13.30;99.90;;;;;;5064380;28;20706;-65
2022/04/22 10:19:37;;;;;;;16.50;12.60;;;13.50;99.90;;;;;;5064088;28;20648;-65
2022/04/22 10:22:04;;;;;;;14.47;11.67;;;13.80;99.90;;;;;;5064114;28;20232;-63
2022/04/22 10:24:33;;;;;;;16.53;12.87;;;13.90;99.90;;;;;;5081572;28;20246;-62
2022/04/22 10:27:03;;;;;;;14.97;13.30;;;14.10;99.90;;;;;;5083729;28;20267;-68
2022/04/22 10:29:30;;;;;;;16.23;12.23;;;14.20;99.90;;;;;;5082507;28;20239;-69
2022/04/22 10:31:56;;;;;;;16.93;14.43;;;14.00;99.90;;;;;;5084012;28;20312;-62
2022/04/22 10:34:39;;;;;;;17.70;12.50;;;14.00;99.90;;;;;;5082501;28;20207;-68
2022/04/22 10:37:15;;;;;;;14.03;12.63;;;13.90;99.90;;;;;;5083766;28;20202;-67
2022/04/22 10:39:40;;;;;;;14.73;12.90;;;13.90;99.90;;;;;;5064059;28;20171;-69
2022/04/22 10:42:14;;;;;;;17.33;14.33;;;13.90;99.90;;;;;;5063647;28;20235;-68
2022/04/22 10:47:40;;;;;;;15.10;13.47;;;13.80;99.90;;;;;;5065442;28;20272;-69
2022/04/22 10:50:26;;;;;;;16.80;14.80;;;13.90;99.90;;;;;;5087800;28;20303;-69
2022/04/22 10:53:07;;;;;;;15.60;13.93;;;14.10;99.90;;;;;;5085635;28;20217;-68
2022/04/22 10:55:40;;;;;;;14.57;13.07;;;14.30;99.90;;;;;;5087946;28;20173;-69
2022/04/22 10:58:21;;;;;;;17.33;14.73;;;14.20;99.90;;;;;;5085692;28;20526;-70
2022/04/22 11:00:52;;;;;;;16.90;14.93;;;14.20;99.90;;;;;;5086956;28;20280;-69
2022/04/22 11:03:31;;;;;;;14.83;13.27;;;14.10;99.90;;;;;;5085503;28;20542;-68
2022/04/22 11:06:01;;;;;;;16.83;15.03;;;14.00;99.90;;;;;;5087377;28;20279;-67
2022/04/22 11:08:30;;;;;;;16.80;14.27;;;13.80;99.90;;;;;;5084715;28;20208;-67
2022/04/22 11:10:55;;;;;;;15.93;14.40;;;13.50;99.90;;;;;;5086643;28;20205;-67
2022/04/22 11:13:41;;;;;;;16.90;13.80;;;13.40;99.90;;;;;;5085167;28;20801;-68
2022/04/22 11:16:11;;;;;;;17.73;14.90;;;13.50;99.90;;;;;;5073602;28;20891;-68
2022/04/22 11:18:41;;;;;;;19.53;15.63;;;13.60;99.90;;;;;;5083887;28;20196;-68
2022/04/22 11:21:19;;;;;;;17.13;15.43;;;13.50;99.90;;;;;;5086870;28;20204;-68
2022/04/22 11:23:45;;;;;;;17.53;15.70;;;13.60;99.90;;;;;;5085173;28;20297;-68
2022/04/22 11:26:16;;;;;;;15.93;14.30;;;13.60;99.90;;;;;;5084705;28;20220;-68
2022/04/22 11:28:44;;;;;;;16.33;14.63;;;13.70;99.90;;;;;;5069359;28;20220;-69
2022/04/22 11:31:12;;;;;;;15.93;14.33;;;13.70;99.90;;;;;;5084946;28;20213;-67
2022/04/22 11:33:40;;;;;;;17.10;15.30;;;13.60;99.90;;;;;;5086335;28;20739;-67
2022/04/22 11:36:07;;;;;;;17.67;15.83;;;13.70;99.90;;;;;;5071935;28;20204;-68
2022/04/22 11:38:33;;;;;;;19.30;17.30;;;13.80;99.90;;;;;;5086299;28;20666;-68
2022/04/22 11:40:58;;;;;;;18.80;16.60;;;13.90;99.90;;;;;;5084458;28;20206;-68
2022/04/22 11:43:28;;;;;;;17.83;15.93;;;13.70;99.90;;;;;;5086365;28;20651;-68
2022/04/22 11:45:54;;;;;;;18.30;16.13;;;13.60;99.90;;;;;;5084737;28;20197;-68
2022/04/22 11:48:24;;;;;;;20.13;17.57;;;13.40;99.90;;;;;;5086290;28;20663;-69
2022/04/22 11:50:50;;;;;;;21.33;19.03;;;13.50;99.90;;;;;;5076883;28;20288;-67
2022/04/22 11:53:23;;;;;;;19.87;17.00;;;13.50;99.90;;;;;;5086760;28;20622;-72
2022/04/22 11:55:49;;;;;;;19.83;16.73;;;13.60;99.90;;;;;;5081866;28;20434;-69
2022/04/22 11:58:17;;;;;;;18.17;16.30;;;13.60;99.90;;;;;;5085550;28;20192;-60
2022/04/22 12:06:16;;;;;;;21.63;19.17;;;13.70;99.90;;;;;;5080462;28;20228;-62
2022/04/22 12:09:01;;;;;;;25.30;20.27;;;13.60;99.90;;;;;;5086001;28;20569;-63
2022/04/22 12:11:28;;;;;;;23.97;21.43;;;13.60;99.90;;;;;;5081054;28;20388;-63
2022/04/22 12:13:55;;;;;;;24.83;22.33;;;13.30;99.90;;;;;;5066751;28;20277;-62
2022/04/22 12:16:22;;;;;;;25.40;22.70;;;13.10;99.90;;;;;;5083609;28;20680;-62
2022/04/22 12:18:49;;;;;;;26.57;22.60;;;13.10;99.90;;;;;;5084824;28;20200;-63
2022/04/22 12:21:17;;;;;;;32.77;23.17;;;13.00;99.90;;;;;;5083178;28;20205;-61
2022/04/22 12:23:45;;;;;;;26.30;21.80;;;12.90;99.90;;;;;;5085319;28;20220;-62
2022/04/22 12:26:24;;;;;;;25.63;21.70;;;12.90;99.90;;;;;;5071304;28;20217;-62
2022/04/22 12:29:09;;;;;;;26.13;22.20;;;13.00;99.90;;;;;;5084765;28;20232;-61
2022/04/22 12:31:38;;;;;;;27.27;23.67;;;13.00;99.90;;;;;;5081399;28;20714;-60
2022/04/22 12:34:09;;;;;;;27.23;22.37;;;13.00;99.90;;;;;;5084999;28;20200;-62
2022/04/22 12:36:40;;;;;;;26.83;22.27;;;13.00;99.90;;;;;;5069421;28;20196;-63
2022/04/22 12:39:08;;;;;;;23.07;20.63;;;13.10;99.90;;;;;;5085498;28;20199;-62
2022/04/22 12:41:45;;;;;;;27.03;22.07;;;13.10;99.90;;;;;;5083124;28;20215;-63
2022/04/22 12:44:14;;;;;;;24.80;22.13;;;13.30;99.90;;;;;;5085450;28;20217;-62
2022/04/22 12:52:28;;;;;;;22.63;20.33;;;13.30;99.90;;;;;;5075130;28;20264;-61
2022/04/22 12:55:08;;;;;;;19.57;17.53;;;13.50;99.90;;;;;;5069879;28;20182;-63
2022/04/22 12:57:36;;;;;;;22.53;18.47;;;13.50;99.90;;;;;;5082523;28;20193;-63
2022/04/22 13:00:16;;;;;;;25.60;18.70;;;13.50;99.90;;;;;;5084424;28;20523;-63
2022/04/22 13:02:42;;;;;;;22.20;18.93;;;13.80;99.90;;;;;;5081535;28;20212;-63
2022/04/22 13:05:16;;;;;;;22.23;19.47;;;13.90;99.90;;;;;;5084871;28;20181;-61
2022/04/22 13:07:47;;;;;;;23.30;18.77;;;14.10;99.90;;;;;;5081276;28;20261;-62
2022/04/22 13:10:15;;;;;;;21.20;18.47;;;14.60;99.90;;;;;;5083848;28;20189;-64
2022/04/22 13:12:43;;;;;;;21.40;17.57;;;14.90;99.90;;;;;;5063729;28;20306;-62
2022/04/22 13:15:13;;;;;;;20.87;17.93;;;14.90;99.90;;;;;;5084277;28;20184;-61
2022/04/22 13:17:43;;;;;;;20.77;18.20;;;14.70;99.90;;;;;;5081568;28;20197;-62
2022/04/22 13:20:10;;;;;;;19.50;16.90;;;15.00;99.90;;;;;;5083683;28;20186;-63
2022/04/22 13:22:36;;;;;;;20.60;17.17;;;15.20;99.90;;;;;;5082301;28;20193;-62
2022/04/22 13:25:03;;;;;;;16.93;15.20;;;15.60;99.90;;;;;;5084273;28;20216;-64
2022/04/22 13:27:29;;;;;;;18.70;16.70;;;15.50;99.90;;;;;;5082637;28;20695;-61
2022/04/22 13:29:54;;;;;;;19.10;15.87;;;15.60;99.90;;;;;;5083196;28;20354;-61
2022/04/22 13:32:20;;;;;;;22.80;16.50;;;15.60;99.90;;;;;;5084997;28;20257;-60
2022/04/22 13:34:45;;;;;;;20.00;17.27;;;15.50;99.90;;;;;;5082882;28;20212;-61
2022/04/22 13:37:11;;;;;;;19.23;17.17;;;15.50;99.90;;;;;;5083594;28;20327;-61
2022/04/22 13:39:37;;;;;;;19.80;16.07;;;15.50;99.90;;;;;;5084754;28;20208;-61
2022/04/22 13:42:03;;;;;;;19.53;17.53;;;15.30;99.90;;;;;;5081982;28;20214;-62
2022/04/22 13:52:40;;;;;;;17.13;13.20;;;15.10;99.90;;;;;;5075554;28;20377;-61
2022/04/22 13:55:06;;;;;;;15.90;14.20;;;15.10;99.90;;;;;;5084288;28;20189;-61
2022/04/22 13:57:31;;;;;;;14.43;12.93;;;15.00;99.90;;;;;;5082337;28;20193;-61
2022/04/22 13:59:57;;;;;;;15.03;12.90;;;14.40;99.90;;;;;;5084211;28;20206;-62